Scroll down
FLIGHT INFORMATION
British Airways

BAW287

At Arrival Gate

EGLL
 KSFO
DATE: 2020-07-18
GATE: 554
GATE DEPARTURE: 13:18
TAKEOFF: 13:36
DATE: 2020-07-19
GATE:  -
LANDING: 00:32
GATE ARRIVAL: 00:38
FLIGHT DATA
Crew: MICHAEL ROTH
Speed: 513 kts Altitude: 36000 ft
Stage Length: 4652 nm
Route: EGLL D268D D281G BURNB D356D UMLAT WOBUN WELIN AKUPA TIMPO ELVOS TNT RODOL TENSO BELOX REMSI APSOV PIKIL 5720N 5730N 5640N 5550N LOMSI JOVIE DUSMA YRL MOT PARZZ ROOHZ PUHGI JENSA FIMUV LEGGS KSFO
Block Time: 11.3 Flight Time: 10.9
Fuel Used: 270321 LB
TRACK DATA
50000 FT1000 KT
AIRCRAFT INFORMATION
Aircraft Type: B744
Registration: G-CIVI
SELCAL: BGMS MSN/LN: 25814 / 1079
Operator: BRITISH AIRWAYS
Flights: 9 Block Time: 16.8 Flight Time: 15
Fuel Used: 389860 LB
  • DEPARTURE INFORMATION
    Date: 2020-07-18
    Airport: EGLL
    Gate: 554
    Gate Departure: 13:18
    Takeoff: 13:36
    ARRIVAL INFORMATION
    Date: 2020-07-19
    Airport: KSFO
    Gate:  -
    Landing: 00:32
    Gate Arrival: 00:38
  • FLIGHT DATA
    Crew: MICHAEL ROTH
    Speed: 513 kts Altitude: 36000 ft
    Stage Length: 2512 nm
    Route: EGLL D268D D281G BURNB D356D UMLAT WOBUN WELIN AKUPA TIMPO ELVOS TNT RODOL TENSO BELOX REMSI APSOV PIKIL 5720N 5730N 5640N 5550N LOMSI JOVIE DUSMA YRL MOT PARZZ ROOHZ PUHGI JENSA FIMUV LEGGS KSFO
    Block Time: 11.3 Flight Time: 10.9
    Fuel Used: 270321 LB
  • AIRCRAFT INFORMATION
    Aircraft Type: B744
    Registration: G-CIVI
    SELCAL: BGMS MSN/LN: 25814 / 1079
    Operator: British Airways
    Flights: 9 Block Time: 16.8 Flight Time: 15
    Fuel Used: 389860 LB

DATALINK LOG | Newest first | Current as of: 2020-09-28 18:08:26
LABEL SEQUENCE CONTENT Dn/Up
QD360100:38 71.5▼ Dn
QC304600:32▼ Dn
2U1534KSFO 190256Z 31015KT 10SM FEW007 FEW180 17/12 A2993 RMK AO2 SLP135 T01670122 55001 $▲ Up
2S1533KSFO▼ Dn
2U4506KSFO 190156Z 32017KT 10SM FEW009 FEW180 19/12 A2992 RMK AO2 SLP131 T01890122 $▲ Up
2S4505KSFO▼ Dn
DM482353JOVIE 18:51z FL340 DUSMA 19:51z YRL M0.85 87.6 -48 219/24 RW28R 00:20z▼ Dn
QB331713:36▼ Dn
QA195813:18 342.1▼ Dn
A31600CLEARED TO KSFO VIA UMLA1F UMLAT T418 WELIN T420 TNT UL28 RODOL UM65 TENSO L603 REMSI APSOV PIKIL NATA LOMSI JOVIE DUSMA YRL MOT PARZZ Q138 FIMUV LEGGS BDEGA3. SQUAWK .▲ Up
B31600EGLL KSFO D ▼ Dn
2U1559EGLL 181550Z AUTO 29008KT 250V320 9999 NCD 25/10 Q1016 NOSIG▲ Up
2S1559EGLL▼ Dn
Q01454[LINK ACK]▲ Up
Q01453[LINK TEST]▼ Dn


AIRCRAFT HISTORY
FLIGHT DATE FLIGHT NO. ORIGIN DESTINATION ROUTE BLOCK TIME FLIGHT TIME FUEL USED (LB) PILOT
2020-07-18BAW287EGLL KSFO EGLL D268D D281G BURNB D356D UMLAT WOBUN WELIN AKUPA TIMPO ELVOS TNT RODOL TENSO BELOX REMSI APSOV PIKIL 5720N 5730N 5640N 5550N LOMSI JOVIE DUSMA YRL MOT PARZZ ROOHZ PUHGI JENSA FIMUV LEGGS KSFO11.310.9270321Michael Roth
2020-07-14BAW9001EGPK EGLL EGPK LUCCO OSMEG RIPNO DCS LAKEY NUGRA EGLL10.821297Anton Vind
2019-05-21BAW521EGPK EGPK EGPK PKW01 PKW02 PKW03 LUCCO EGSS0.100-HIDDEN-
2019-02-01BAW201EGLL EGPK EGLL D113B D071J D330T ULTIB TNT D312E DAYNE RW05R1.20.824484-HIDDEN-
2019-01-18BAW188EGGP EGLL D084A WHINB NANTI HON TOBID SOPIT WCONB0.80.618263-HIDDEN-
2018-11-19EGGP EGGP D084A WHINB NANTI STAFA HON PIXUP FINMA BETPO BIG SANDY MOTOX INGNB LESDO BUBLI LUVAL LANVI EPL LASAT BEGAR ELMUR RESIA LISKO GISNU XAPAT TIGRA BEDEX KRK MALED NIDRI ROTSA NEMES0.50.312136-HIDDEN-
2018-08-20BAW9001EGLL EGGP 0.90.517820Matthew Gales
2018-08-16BAW0EGFF EGLL 0.90.615479Matthew Gales
2018-03-30EGLL EGFF 0.40.310060Chris Makris